Time;durP1;ratioP1;P1;durP2;ratioP2;P2;SDS_P1;SDS_P2;PMS_P1;PMS_P2;Temp;Humidity;BMP_temperature;BMP_pressure;BME280_temperature;BME280_humidity;BME280_pressure;Samples;Min_cycle;Max_cycle;Signal;HPM_P1;HPM_P2
2022/10/26 00:02:17;;;;;;;1999.90;999.90;;;9.70;99.90;;;;;;5093710;28;20123;-63
2022/10/26 00:04:43;;;;;;;1999.90;999.90;;;9.60;99.90;;;;;;5111155;28;20064;-62
2022/10/26 00:07:08;;;;;;;1999.90;999.90;;;9.70;99.90;;;;;;5091646;28;20036;-62
2022/10/26 00:09:34;;;;;;;1999.90;999.90;;;9.70;99.90;;;;;;5091999;28;20469;-62
2022/10/26 00:11:59;;;;;;;1999.90;999.90;;;9.70;99.90;;;;;;5092926;28;20471;-62
2022/10/26 00:14:25;;;;;;;1999.90;999.90;;;9.70;99.90;;;;;;5092191;28;20516;-62
2022/10/26 00:16:51;;;;;;;1999.90;999.90;;;9.70;99.90;;;;;;5110146;27;20476;-62
2022/10/26 00:19:17;;;;;;;1999.90;999.90;;;9.80;99.90;;;;;;5120206;27;20046;-63
2022/10/26 00:21:42;;;;;;;1999.90;999.90;;;9.80;99.90;;;;;;5110413;27;20489;-62
2022/10/26 00:24:09;;;;;;;1999.90;999.90;;;9.80;99.90;;;;;;5118309;27;20035;-62
2022/10/26 00:26:34;;;;;;;1999.90;999.90;;;9.80;99.90;;;;;;5113619;27;20043;-62
2022/10/26 00:29:00;;;;;;;1999.90;999.90;;;9.80;99.90;;;;;;5110424;28;20047;-63
2022/10/26 00:31:26;;;;;;;1999.90;999.90;;;9.70;99.90;;;;;;5092775;28;20101;-62
2022/10/26 00:33:53;;;;;;;1999.90;999.90;;;9.70;99.90;;;;;;5074082;28;20537;-62
2022/10/26 00:36:19;;;;;;;1999.90;999.90;;;9.70;99.90;;;;;;5091917;28;20075;-63
2022/10/26 00:38:52;;;;;;;1999.90;999.90;;;9.70;99.90;;;;;;5110143;28;20493;-63
2022/10/26 00:41:23;;;;;;;1999.90;999.90;;;9.70;99.90;;;;;;5110804;28;20046;-63
2022/10/26 00:43:50;;;;;;;1999.90;999.90;;;9.70;99.90;;;;;;5109815;27;20405;-63
2022/10/26 00:46:37;;;;;;;1999.90;999.90;;;9.70;99.90;;;;;;5109855;28;20048;-63
2022/10/26 00:49:09;;;;;;;1999.90;999.90;;;9.70;99.90;;;;;;5089606;28;20047;-63
2022/10/26 00:51:44;;;;;;;1999.90;999.90;;;9.60;99.90;;;;;;5103237;27;20040;-63
2022/10/26 00:54:14;;;;;;;1999.90;999.90;;;9.60;99.90;;;;;;5110028;28;20039;-63
2022/10/26 00:56:41;;;;;;;1999.90;999.90;;;9.60;99.90;;;;;;5109895;28;20031;-63
2022/10/26 00:59:09;;;;;;;1999.90;999.90;;;9.60;99.90;;;;;;5110008;27;20036;-63
2022/10/26 01:01:39;;;;;;;1999.90;999.90;;;9.60;99.90;;;;;;5111544;27;20446;-63
2022/10/26 01:04:05;;;;;;;1999.90;999.90;;;9.60;99.90;;;;;;5108006;28;20071;-63
2022/10/26 01:06:33;;;;;;;1999.90;999.90;;;9.50;99.90;;;;;;5087353;28;20075;-63
2022/10/26 01:08:59;;;;;;;1999.90;999.90;;;9.50;99.90;;;;;;5089850;28;20085;-63
2022/10/26 01:11:24;;;;;;;1999.90;999.90;;;9.50;99.90;;;;;;5094940;27;20042;-63
2022/10/26 01:13:52;;;;;;;1999.90;999.90;;;9.50;99.90;;;;;;5093722;28;20048;-63
2022/10/26 01:16:55;;;;;;;1999.90;999.90;;;9.50;99.90;;;;;;5114398;27;20122;-63
2022/10/26 01:19:41;;;;;;;1999.90;999.90;;;9.40;99.90;;;;;;5090175;28;20048;-63
2022/10/26 01:22:14;;;;;;;1999.90;999.90;;;9.40;99.90;;;;;;5099845;28;20142;-63
2022/10/26 01:24:48;;;;;;;1999.90;999.90;;;9.40;99.90;;;;;;5109025;28;20284;-63
2022/10/26 01:27:33;;;;;;;1999.90;999.90;;;9.30;99.90;;;;;;5070003;28;20043;-63
2022/10/26 01:30:13;;;;;;;1999.90;999.90;;;9.30;99.90;;;;;;5104474;28;20050;-63
2022/10/26 01:32:51;;;;;;;1999.90;999.90;;;9.30;99.90;;;;;;5106205;28;20051;-62
2022/10/26 01:35:20;;;;;;;1999.90;999.90;;;9.20;99.90;;;;;;5083069;28;20570;-63
2022/10/26 01:38:18;;;;;;;1999.90;999.90;;;9.20;99.90;;;;;;5090742;28;20097;-63
2022/10/26 01:40:58;;;;;;;1999.90;999.90;;;9.20;99.90;;;;;;5019628;28;20431;-63
2022/10/26 01:43:25;;;;;;;1999.90;999.90;;;9.10;99.90;;;;;;5087716;28;20055;-63
2022/10/26 01:45:52;;;;;;;1999.90;999.90;;;9.10;99.90;;;;;;5108518;27;20047;-63
2022/10/26 01:48:20;;;;;;;1999.90;999.90;;;9.00;99.90;;;;;;5074236;28;20047;-63
2022/10/26 01:50:50;;;;;;;1999.90;999.90;;;9.00;99.90;;;;;;5108713;28;20063;-63
2022/10/26 01:53:18;;;;;;;1999.90;999.90;;;9.00;99.90;;;;;;5107110;28;20055;-63
2022/10/26 01:55:47;;;;;;;1999.90;999.90;;;9.00;99.90;;;;;;5087297;28;20058;-63
2022/10/26 01:58:39;;;;;;;1999.90;999.90;;;9.00;99.90;;;;;;5090265;28;20089;-63
2022/10/26 02:01:34;;;;;;;1999.90;999.90;;;9.10;99.90;;;;;;5106970;28;20038;-63
2022/10/26 02:04:38;;;;;;;1999.90;999.90;;;9.00;99.90;;;;;;5092255;28;20054;-63
2022/10/26 02:07:43;;;;;;;1999.90;999.90;;;9.00;99.90;;;;;;5102516;28;20123;-63
2022/10/26 02:10:16;;;;;;;1999.90;999.90;;;9.00;99.90;;;;;;5021941;28;20057;-63
2022/10/26 02:13:13;;;;;;;1999.90;999.90;;;9.00;99.90;;;;;;5025446;28;20612;-63
2022/10/26 02:15:45;;;;;;;1999.90;999.90;;;9.00;99.90;;;;;;5009217;28;20431;-63
2022/10/26 02:18:22;;;;;;;1999.90;999.90;;;9.00;99.90;;;;;;5025829;28;20052;-63
2022/10/26 02:20:53;;;;;;;1999.90;999.90;;;9.00;99.90;;;;;;5008369;28;20096;-62
2022/10/26 02:23:20;;;;;;;1999.90;999.90;;;9.00;99.90;;;;;;5026291;28;20038;-63
2022/10/26 02:25:49;;;;;;;1999.90;999.90;;;8.90;99.90;;;;;;4998012;28;20057;-63
2022/10/26 02:28:20;;;;;;;1999.90;999.90;;;8.90;99.90;;;;;;5027533;28;20458;-63
2022/10/26 02:30:48;;;;;;;1999.90;999.90;;;8.90;99.90;;;;;;5009574;28;20044;-63
2022/10/26 02:33:14;;;;;;;1999.90;999.90;;;8.90;99.90;;;;;;5025419;28;20049;-63
2022/10/26 02:35:45;;;;;;;1999.90;999.90;;;8.90;99.90;;;;;;5007886;28;20040;-62
2022/10/26 02:38:12;;;;;;;1999.90;999.90;;;8.80;99.90;;;;;;5025479;28;20041;-63
2022/10/26 02:40:38;;;;;;;1999.90;999.90;;;8.80;99.90;;;;;;5021513;28;20046;-63
2022/10/26 02:43:09;;;;;;;1999.90;999.90;;;8.80;99.90;;;;;;5025127;28;20037;-63
2022/10/26 02:45:40;;;;;;;1999.90;999.90;;;8.80;99.90;;;;;;5064149;28;20538;-63
2022/10/26 02:48:06;;;;;;;1999.90;999.90;;;8.80;99.90;;;;;;5100111;28;20507;-63
2022/10/26 02:50:41;;;;;;;1999.90;999.90;;;8.80;99.90;;;;;;5103447;28;20067;-63
2022/10/26 02:53:13;;;;;;;1999.90;999.90;;;8.70;99.90;;;;;;5110131;27;20394;-63
2022/10/26 02:55:47;;;;;;;1999.90;999.90;;;8.70;99.90;;;;;;5107921;27;20036;-63
2022/10/26 02:58:18;;;;;;;1999.90;999.90;;;8.70;99.90;;;;;;5091495;28;20114;-63
2022/10/26 03:00:44;;;;;;;1999.90;999.90;;;8.60;99.90;;;;;;5080156;28;20059;-63
2022/10/26 03:03:10;;;;;;;1999.90;999.90;;;8.60;99.90;;;;;;5104464;28;20533;-63
2022/10/26 03:05:41;;;;;;;1999.90;999.90;;;8.50;99.90;;;;;;5107865;28;20040;-63
2022/10/26 03:08:07;;;;;;;1999.90;999.90;;;8.50;99.90;;;;;;5104072;27;20039;-63
2022/10/26 03:10:38;;;;;;;1999.90;999.90;;;8.40;99.90;;;;;;5093734;28;20070;-63
2022/10/26 03:13:04;;;;;;;1999.90;999.90;;;8.40;99.90;;;;;;5106944;28;20039;-63
2022/10/26 03:15:29;;;;;;;1999.90;999.90;;;8.40;99.90;;;;;;5103112;28;20602;-63
2022/10/26 03:17:55;;;;;;;1999.90;999.90;;;8.30;99.90;;;;;;5109590;28;20581;-63
2022/10/26 03:20:20;;;;;;;1999.90;999.90;;;8.40;99.90;;;;;;5099591;28;20557;-63
2022/10/26 03:22:47;;;;;;;1999.90;999.90;;;8.40;99.90;;;;;;5107548;28;20523;-63
2022/10/26 03:25:14;;;;;;;1999.90;999.90;;;8.40;99.90;;;;;;5087995;28;20339;-63
2022/10/26 03:27:40;;;;;;;1999.90;999.90;;;8.40;99.90;;;;;;5091989;28;20136;-63
2022/10/26 03:30:07;;;;;;;1999.90;999.90;;;8.40;99.90;;;;;;5093002;28;20130;-62
2022/10/26 03:32:32;;;;;;;1999.90;999.90;;;8.40;99.90;;;;;;5109475;28;20516;-63
2022/10/26 03:34:58;;;;;;;1999.90;999.90;;;8.40;99.90;;;;;;5107304;28;20047;-62
2022/10/26 03:37:23;;;;;;;1999.90;999.90;;;8.40;99.90;;;;;;5079135;28;20420;-63
2022/10/26 03:39:49;;;;;;;1999.90;999.90;;;8.40;99.90;;;;;;5092977;28;20417;-63
2022/10/26 03:42:14;;;;;;;1999.90;999.90;;;8.40;99.90;;;;;;5093566;28;20146;-63
2022/10/26 03:44:40;;;;;;;1999.90;999.90;;;8.40;99.90;;;;;;5107188;28;20042;-63
2022/10/26 03:47:05;;;;;;;1999.90;999.90;;;8.40;99.90;;;;;;5109470;28;20051;-63
2022/10/26 03:49:31;;;;;;;1999.90;999.90;;;8.40;99.90;;;;;;5107192;28;20046;-63
2022/10/26 03:51:57;;;;;;;1999.90;999.90;;;8.40;99.90;;;;;;5095511;28;20052;-63
2022/10/26 03:54:22;;;;;;;1999.90;999.90;;;8.50;99.90;;;;;;5112929;28;20062;-63
2022/10/26 03:56:48;;;;;;;1999.90;999.90;;;8.50;99.90;;;;;;5072486;28;20534;-63
2022/10/26 03:59:13;;;;;;;1999.90;999.90;;;8.50;99.90;;;;;;5107116;28;20468;-63
2022/10/26 04:01:39;;;;;;;1999.90;999.90;;;8.50;99.90;;;;;;5106583;28;20087;-63
2022/10/26 04:04:04;;;;;;;1999.90;999.90;;;8.50;99.90;;;;;;5096085;28;20154;-63
2022/10/26 04:06:30;;;;;;;1999.90;999.90;;;8.50;99.90;;;;;;5102410;28;20031;-63
2022/10/26 04:09:01;;;;;;;1999.90;999.90;;;8.50;99.90;;;;;;5107479;28;20040;-62
2022/10/26 04:11:27;;;;;;;1999.90;999.90;;;8.50;99.90;;;;;;5091762;28;20048;-63
2022/10/26 04:13:54;;;;;;;1999.90;999.90;;;8.50;99.90;;;;;;5106223;28;20049;-63
2022/10/26 04:16:20;;;;;;;1999.90;999.90;;;8.50;99.90;;;;;;5073305;28;20047;-63
2022/10/26 04:18:45;;;;;;;1999.90;999.90;;;8.50;99.90;;;;;;5090805;28;20051;-63
2022/10/26 04:21:11;;;;;;;1999.90;999.90;;;8.50;99.90;;;;;;5109988;28;20079;-63
2022/10/26 04:23:36;;;;;;;1999.90;999.90;;;8.60;99.90;;;;;;5109598;28;20516;-63
2022/10/26 04:26:04;;;;;;;1999.90;999.90;;;8.60;99.90;;;;;;5114641;27;20040;-63
2022/10/26 04:28:30;;;;;;;1999.90;999.90;;;8.60;99.90;;;;;;5099935;28;20469;-63
2022/10/26 04:30:55;;;;;;;1999.90;999.90;;;8.60;99.90;;;;;;5096375;28;20039;-63
2022/10/26 04:33:21;;;;;;;1999.90;999.90;;;8.70;99.90;;;;;;5096298;28;20039;-63
2022/10/26 04:35:47;;;;;;;1999.90;999.90;;;8.70;99.90;;;;;;5111761;27;20036;-63
2022/10/26 04:38:12;;;;;;;1999.90;999.90;;;8.80;99.90;;;;;;5110246;28;20628;-63
2022/10/26 04:40:38;;;;;;;1999.90;999.90;;;8.80;99.90;;;;;;5111181;28;20044;-63
2022/10/26 04:43:03;;;;;;;1999.90;999.90;;;8.90;99.90;;;;;;5102313;28;20039;-63
2022/10/26 04:45:29;;;;;;;1999.90;999.90;;;8.90;99.90;;;;;;5111315;27;20050;-63
2022/10/26 04:48:06;;;;;;;1999.90;999.90;;;9.00;99.90;;;;;;5109289;27;20147;-63
2022/10/26 04:50:32;;;;;;;1999.90;999.90;;;9.10;99.90;;;;;;5111309;27;20046;-63
2022/10/26 04:52:58;;;;;;;1999.90;999.90;;;9.10;99.90;;;;;;5102727;27;20040;-63
2022/10/26 04:55:24;;;;;;;1999.90;999.90;;;9.20;99.90;;;;;;5110797;28;20042;-63
2022/10/26 04:57:49;;;;;;;1999.90;999.90;;;9.20;99.90;;;;;;5092513;28;20092;-63
2022/10/26 05:00:15;;;;;;;1999.90;999.90;;;9.30;99.90;;;;;;5109661;28;20143;-63
2022/10/26 05:02:40;;;;;;;1999.90;999.90;;;9.30;99.90;;;;;;5109905;27;20036;-63
2022/10/26 05:05:06;;;;;;;1999.90;999.90;;;9.30;99.90;;;;;;5097036;28;20058;-63
2022/10/26 05:07:32;;;;;;;1999.90;999.90;;;9.40;99.90;;;;;;5110507;27;20039;-63
2022/10/26 05:09:57;;;;;;;1999.90;999.90;;;9.50;99.90;;;;;;5117848;27;20047;-63
2022/10/26 05:12:23;;;;;;;1999.90;999.90;;;9.50;99.90;;;;;;5082640;28;20039;-63
2022/10/26 05:14:48;;;;;;;1999.90;999.90;;;9.50;99.90;;;;;;5121750;27;20115;-63
2022/10/26 05:17:14;;;;;;;1999.90;999.90;;;9.50;99.90;;;;;;5109497;27;20067;-63
2022/10/26 05:19:40;;;;;;;1999.90;999.90;;;9.60;99.90;;;;;;5108375;28;20039;-63
2022/10/26 05:22:05;;;;;;;1999.90;999.90;;;9.60;99.90;;;;;;5091387;27;20152;-63
2022/10/26 05:24:31;;;;;;;1999.90;999.90;;;9.60;99.90;;;;;;5093896;28;20042;-63
2022/10/26 05:26:56;;;;;;;1999.90;999.90;;;9.70;99.90;;;;;;5108010;28;20035;-63
2022/10/26 05:29:22;;;;;;;1999.90;999.90;;;9.70;99.90;;;;;;5108999;28;20043;-63
2022/10/26 05:31:47;;;;;;;1999.90;999.90;;;9.70;99.90;;;;;;5120927;27;20039;-63
2022/10/26 05:34:13;;;;;;;1999.90;999.90;;;9.80;99.90;;;;;;5108864;28;20108;-63
2022/10/26 05:36:39;;;;;;;1999.90;999.90;;;9.80;99.90;;;;;;5120816;27;20091;-63
2022/10/26 05:39:04;;;;;;;1999.90;999.90;;;9.90;99.90;;;;;;5109287;28;20047;-62
2022/10/26 05:41:30;;;;;;;1999.90;999.90;;;9.90;99.90;;;;;;5109143;28;20362;-63
2022/10/26 05:43:55;;;;;;;1999.90;999.90;;;9.90;99.90;;;;;;5107601;28;20055;-63
2022/10/26 05:46:21;;;;;;;1999.90;999.90;;;9.90;99.90;;;;;;5111142;27;20052;-63
2022/10/26 05:48:46;;;;;;;1999.90;999.90;;;9.90;99.90;;;;;;5110004;27;20419;-63
2022/10/26 05:51:13;;;;;;;1999.90;999.90;;;9.90;99.90;;;;;;5107814;28;20054;-63
2022/10/26 05:53:38;;;;;;;1999.90;999.90;;;10.00;99.90;;;;;;5109279;28;20058;-63
2022/10/26 05:56:30;;;;;;;1999.90;999.90;;;10.00;99.90;;;;;;5109331;27;20485;-63
2022/10/26 05:58:56;;;;;;;1999.90;999.90;;;10.00;99.90;;;;;;5119753;27;20039;-63
2022/10/26 06:01:46;;;;;;;1999.90;999.90;;;10.00;99.90;;;;;;5108932;27;20047;-63
2022/10/26 06:04:31;;;;;;;1999.90;999.90;;;10.10;99.90;;;;;;5074722;28;20139;-63
2022/10/26 06:06:58;;;;;;;1999.90;999.90;;;10.10;99.90;;;;;;5089130;28;20099;-63
2022/10/26 06:09:24;;;;;;;1999.90;999.90;;;10.10;99.90;;;;;;5093768;28;20043;-63
2022/10/26 06:11:50;;;;;;;1999.90;999.90;;;10.10;99.90;;;;;;5084130;28;20052;-63
2022/10/26 06:14:16;;;;;;;1999.90;999.90;;;10.10;99.90;;;;;;5092537;28;20051;-63
2022/10/26 06:16:49;;;;;;;1999.90;999.90;;;10.10;99.90;;;;;;5090747;28;20046;-63
2022/10/26 06:19:26;;;;;;;1999.90;999.90;;;10.10;99.90;;;;;;5107462;28;20047;-64
2022/10/26 06:21:58;;;;;;;1999.90;999.90;;;10.10;99.90;;;;;;5089536;28;20039;-64
2022/10/26 06:24:27;;;;;;;1999.90;999.90;;;10.20;99.90;;;;;;5100143;28;20346;-65
2022/10/26 06:27:06;;;;;;;1999.90;999.90;;;10.20;99.90;;;;;;5070026;28;20434;-64
2022/10/26 06:29:56;;;;;;;1999.90;999.90;;;10.20;99.90;;;;;;5096623;28;20044;-64
2022/10/26 06:32:23;;;;;;;1999.90;999.90;;;10.20;99.90;;;;;;5093746;28;20054;-64
2022/10/26 06:34:52;;;;;;;1999.90;999.90;;;10.30;99.90;;;;;;5089738;27;20047;-64
2022/10/26 06:37:18;;;;;;;1999.90;999.90;;;10.30;99.90;;;;;;5107588;27;20044;-64
2022/10/26 06:39:46;;;;;;;1999.90;999.90;;;10.30;99.90;;;;;;5088796;28;20489;-63
2022/10/26 06:42:12;;;;;;;1999.90;999.90;;;10.40;99.90;;;;;;5093134;28;20038;-65
2022/10/26 06:44:38;;;;;;;1999.90;999.90;;;10.40;99.90;;;;;;5109908;27;20034;-64
2022/10/26 06:47:33;;;;;;;1999.90;999.90;;;10.40;99.90;;;;;;5090990;28;20055;-64
2022/10/26 06:50:24;;;;;;;1999.90;999.90;;;10.40;99.90;;;;;;5073829;28;20047;-64
2022/10/26 06:53:09;;;;;;;1999.90;999.90;;;10.40;99.90;;;;;;5100059;28;20070;-64
2022/10/26 06:55:42;;;;;;;1999.90;999.90;;;10.50;99.90;;;;;;5092968;27;20457;-64
2022/10/26 06:58:09;;;;;;;;;;;10.60;99.90;;;;;;5097223;28;20090;-64
2022/10/26 07:00:35;;;;;;;1999.90;999.90;;;10.60;99.90;;;;;;5104551;28;20422;-64
2022/10/26 07:03:00;;;;;;;1999.90;999.90;;;10.70;99.90;;;;;;5086218;28;20055;-64
2022/10/26 07:05:26;;;;;;;1999.90;999.90;;;10.70;99.90;;;;;;5085477;28;20035;-64
2022/10/26 07:07:51;;;;;;;1999.90;999.90;;;10.70;99.90;;;;;;5099857;28;20039;-64
2022/10/26 07:10:17;;;;;;;1999.90;999.90;;;10.80;99.90;;;;;;5108159;28;20042;-64
2022/10/26 07:12:42;;;;;;;1999.90;999.90;;;10.80;99.90;;;;;;5104289;28;20040;-64
2022/10/26 07:15:08;;;;;;;1999.90;999.90;;;10.80;99.90;;;;;;5101140;28;20038;-64
2022/10/26 07:17:47;;;;;;;1999.90;999.90;;;10.90;99.90;;;;;;5111457;28;20118;-64
2022/10/26 07:20:14;;;;;;;1999.90;999.90;;;10.90;99.90;;;;;;5106929;28;20119;-64
2022/10/26 07:22:41;;;;;;;1999.90;999.90;;;10.90;99.90;;;;;;5091911;28;20044;-64
2022/10/26 07:25:07;;;;;;;1999.90;999.90;;;11.00;99.90;;;;;;5087351;28;20055;-64
2022/10/26 07:27:34;;;;;;;1999.90;999.90;;;11.00;99.90;;;;;;5100807;28;20116;-64
2022/10/26 07:29:59;;;;;;;1999.90;999.90;;;11.10;99.90;;;;;;5090997;28;20044;-64
2022/10/26 07:32:25;;;;;;;1999.90;999.90;;;11.10;99.90;;;;;;5088584;28;20039;-64
2022/10/26 07:34:51;;;;;;;1999.90;999.90;;;11.20;99.90;;;;;;5097401;28;20043;-64
2022/10/26 07:37:16;;;;;;;1999.90;999.90;;;11.20;99.90;;;;;;5084719;28;20043;-64
2022/10/26 07:39:42;;;;;;;1999.90;999.90;;;11.30;99.90;;;;;;5056558;28;20047;-64
2022/10/26 07:42:08;;;;;;;1999.90;999.90;;;11.40;99.90;;;;;;5092161;28;20507;-64
2022/10/26 07:44:34;;;;;;;1999.90;999.90;;;11.40;99.90;;;;;;5091089;28;20043;-65
2022/10/26 07:46:59;;;;;;;1999.90;999.90;;;11.50;99.90;;;;;;5098373;28;20047;-65
2022/10/26 07:49:25;;;;;;;1999.90;999.90;;;11.50;99.90;;;;;;5090382;28;20090;-64
2022/10/26 07:51:51;;;;;;;1999.90;999.90;;;11.60;99.90;;;;;;5107300;28;20040;-64
2022/10/26 07:54:16;;;;;;;1999.90;999.90;;;11.60;99.90;;;;;;5107085;28;20127;-64
2022/10/26 07:56:42;;;;;;;1999.90;999.90;;;11.70;99.90;;;;;;5101755;28;20064;-64
2022/10/26 07:59:09;;;;;;;1999.90;999.90;;;11.80;99.90;;;;;;5087819;27;20044;-64
2022/10/26 08:01:35;;;;;;;1999.90;999.90;;;11.80;99.90;;;;;;5094173;28;21074;-64
2022/10/26 08:04:01;;;;;;;1999.90;999.90;;;11.90;99.90;;;;;;5112809;27;20051;-65
2022/10/26 08:06:26;;;;;;;1999.90;999.90;;;12.00;99.90;;;;;;5110355;28;20036;-64
2022/10/26 08:08:52;;;;;;;1999.90;999.90;;;12.10;99.90;;;;;;5110750;27;20086;-64
2022/10/26 08:11:18;;;;;;;1999.90;999.90;;;12.10;99.90;;;;;;5111262;27;20095;-65
2022/10/26 08:13:43;;;;;;;1999.90;999.90;;;12.30;99.90;;;;;;5105855;27;20473;-64
2022/10/26 08:16:09;;;;;;;1999.90;999.90;;;12.40;99.90;;;;;;5089105;28;20043;-65
2022/10/26 08:18:35;;;;;;;1999.90;999.90;;;12.50;99.90;;;;;;5112947;27;20609;-64
2022/10/26 08:21:03;;;;;;;1999.90;999.90;;;12.60;99.90;;;;;;5104834;28;20185;-64
2022/10/26 08:23:29;;;;;;;1999.90;999.90;;;12.80;99.90;;;;;;5090413;28;20063;-65
2022/10/26 08:25:58;;;;;;;1999.90;999.90;;;13.20;99.90;;;;;;5085677;28;20638;-64
2022/10/26 08:28:24;;;;;;;1999.90;999.90;;;13.80;99.90;;;;;;5110462;28;20393;-65
2022/10/26 08:30:50;;;;;;;1999.90;999.90;;;14.30;99.90;;;;;;5110594;28;20044;-65
2022/10/26 08:33:15;;;;;;;1999.90;999.90;;;14.80;99.90;;;;;;5114026;27;20031;-64
2022/10/26 08:35:41;;;;;;;1999.90;999.90;;;15.50;99.90;;;;;;5077072;28;20036;-64
2022/10/26 08:38:07;;;;;;;1999.90;999.90;;;16.10;99.90;;;;;;5108127;28;20579;-65
2022/10/26 08:40:37;;;;;;;1999.90;999.90;;;16.40;99.90;;;;;;5092574;28;20504;-64
2022/10/26 08:43:39;;;;;;;1999.90;999.90;;;16.70;99.90;;;;;;5074340;28;20107;-65
2022/10/26 08:46:33;;;;;;;1999.90;999.90;;;17.00;99.90;;;;;;5086103;27;20063;-65
2022/10/26 08:49:12;;;;;;;1999.90;999.90;;;17.40;99.90;;;;;;5105748;28;20044;-65
2022/10/26 08:51:40;;;;;;;1999.90;999.90;;;17.50;99.90;;;;;;5087545;28;20434;-65
2022/10/26 08:54:31;;;;;;;1999.90;999.90;;;17.50;99.90;;;;;;5090919;28;20063;-65
2022/10/26 08:56:59;;;;;;;1999.90;999.90;;;17.60;99.90;;;;;;5091697;28;20051;-65
2022/10/26 08:59:48;;;;;;;1999.90;999.90;;;17.60;99.90;;;;;;5109632;28;20052;-65
2022/10/26 09:02:15;;;;;;;1999.90;999.90;;;17.80;99.90;;;;;;5105773;28;20436;-65
2022/10/26 09:04:41;;;;;;;1999.90;999.90;;;18.00;99.90;;;;;;5086425;28;20043;-65
2022/10/26 09:07:32;;;;;;;1999.90;999.90;;;18.10;99.90;;;;;;5094985;28;20059;-65
2022/10/26 09:10:10;;;;;;;1999.90;999.90;;;18.10;99.90;;;;;;5091189;28;20066;-65
2022/10/26 09:13:01;;;;;;;1999.90;999.90;;;17.90;99.90;;;;;;5094306;28;20051;-65
2022/10/26 09:15:48;;;;;;;1999.90;999.90;;;17.50;99.90;;;;;;5105613;27;20042;-65
2022/10/26 09:18:19;;;;;;;1999.90;999.90;;;17.50;99.90;;;;;;5109084;28;20050;-65
2022/10/26 09:21:01;;;;;;;1999.90;999.90;;;17.70;99.90;;;;;;5092479;28;20524;-65
2022/10/26 09:23:46;;;;;;;1999.90;999.90;;;17.80;99.90;;;;;;5103033;27;20725;-65
2022/10/26 09:26:17;;;;;;;1999.90;999.90;;;18.00;99.90;;;;;;5108872;28;20039;-65
2022/10/26 09:28:47;;;;;;;1999.90;999.90;;;18.10;99.90;;;;;;5106766;28;20067;-65
2022/10/26 09:31:15;;;;;;;1999.90;999.90;;;18.10;99.90;;;;;;5102158;28;20381;-65
2022/10/26 09:33:41;;;;;;;1999.90;999.90;;;17.90;99.90;;;;;;5104334;27;20059;-65
2022/10/26 09:36:11;;;;;;;1999.90;999.90;;;17.70;99.90;;;;;;5087021;28;20031;-65
2022/10/26 09:38:50;;;;;;;1999.90;999.90;;;17.80;99.90;;;;;;5112329;27;20088;-65
2022/10/26 09:41:23;;;;;;;1999.90;999.90;;;17.90;99.90;;;;;;5100848;28;20036;-65
2022/10/26 09:44:10;;;;;;;1999.90;999.90;;;17.90;99.90;;;;;;5089902;28;20088;-65
2022/10/26 09:46:48;;;;;;;1999.90;999.90;;;17.90;99.90;;;;;;5104025;27;20496;-65
2022/10/26 09:49:16;;;;;;;1999.90;999.90;;;17.90;99.90;;;;;;5092068;28;20031;-65
2022/10/26 09:51:43;;;;;;;1999.90;999.90;;;17.80;99.90;;;;;;5094741;28;20481;-65
2022/10/26 09:54:18;;;;;;;1999.90;999.90;;;17.90;99.90;;;;;;5088745;28;20426;-65
2022/10/26 09:56:48;;;;;;;1999.90;999.90;;;18.00;99.90;;;;;;5092074;28;20039;-65
2022/10/26 09:59:16;;;;;;;1999.90;999.90;;;18.10;99.90;;;;;;5090829;27;20481;-65
2022/10/26 10:01:42;;;;;;;1999.90;999.90;;;18.10;99.90;;;;;;5108699;28;20036;-65
2022/10/26 10:04:10;;;;;;;1999.90;999.90;;;18.10;99.90;;;;;;5102688;27;20043;-65
2022/10/26 10:06:36;;;;;;;1999.90;999.90;;;18.10;99.90;;;;;;5099228;28;20035;-65
2022/10/26 10:09:09;;;;;;;1999.90;999.90;;;17.90;99.90;;;;;;5089901;28;20481;-65
2022/10/26 10:11:42;;;;;;;1999.90;999.90;;;17.60;99.90;;;;;;5107610;28;20075;-65
2022/10/26 10:14:15;;;;;;;1999.90;999.90;;;17.50;99.90;;;;;;5107986;28;20504;-65
2022/10/26 10:16:49;;;;;;;1999.90;999.90;;;17.50;99.90;;;;;;5097253;28;20039;-65
2022/10/26 10:19:22;;;;;;;1999.90;999.90;;;17.40;99.90;;;;;;5108469;28;20082;-66
2022/10/26 10:21:49;;;;;;;1999.90;999.90;;;17.30;99.90;;;;;;5102037;28;20043;-65
2022/10/26 10:24:33;;;;;;;1999.90;999.90;;;17.40;99.90;;;;;;5106734;27;20040;-65
2022/10/26 10:27:14;;;;;;;1999.90;999.90;;;17.50;99.90;;;;;;5089792;28;20031;-65
2022/10/26 10:29:51;;;;;;;1999.90;999.90;;;17.50;99.90;;;;;;5087366;28;20052;-65
2022/10/26 10:32:19;;;;;;;1999.90;999.90;;;17.60;99.90;;;;;;5109016;27;20035;-65
2022/10/26 10:34:52;;;;;;;1999.90;999.90;;;17.70;99.90;;;;;;5104254;27;20148;-65
2022/10/26 10:37:23;;;;;;;;;;;17.70;99.90;;;;;;5103950;27;20039;-65
2022/10/26 10:39:48;;;;;;;1999.90;999.90;;;17.70;99.90;;;;;;5092705;27;20404;-65
2022/10/26 10:42:22;;;;;;;1999.90;999.90;;;17.70;99.90;;;;;;5102085;27;20043;-65
2022/10/26 10:44:52;;;;;;;1999.90;999.90;;;17.70;99.90;;;;;;5085205;28;20035;-65
2022/10/26 10:47:25;;;;;;;1999.90;999.90;;;17.70;99.90;;;;;;5070292;28;20058;-65
2022/10/26 10:49:57;;;;;;;1999.90;999.90;;;17.70;99.90;;;;;;5101910;28;20035;-65
2022/10/26 10:52:28;;;;;;;1999.90;999.90;;;17.80;99.90;;;;;;5080039;28;20415;-65
2022/10/26 10:55:07;;;;;;;1999.90;999.90;;;17.90;99.90;;;;;;5101938;28;20284;-65
2022/10/26 10:57:39;;;;;;;1999.90;999.90;;;18.00;99.90;;;;;;5095217;28;20340;-65
2022/10/26 11:00:08;;;;;;;1999.90;999.90;;;18.10;99.90;;;;;;5103193;28;20127;-65
2022/10/26 11:03:07;;;;;;;1999.90;999.90;;;18.20;99.90;;;;;;5081557;28;20446;-65
2022/10/26 11:06:01;;;;;;;1999.90;999.90;;;18.50;99.90;;;;;;5069967;28;20044;-65
2022/10/26 11:08:32;;;;;;;1999.90;999.90;;;18.80;99.90;;;;;;5105230;27;20714;-66
2022/10/26 11:11:35;;;;;;;1999.90;999.90;;;18.90;99.90;;;;;;5085841;28;20568;-65
2022/10/26 11:14:26;;;;;;;1999.90;999.90;;;18.90;99.90;;;;;;5107999;27;20035;-65
2022/10/26 11:17:01;;;;;;;1999.90;999.90;;;18.90;99.90;;;;;;5102635;27;20070;-65
2022/10/26 11:19:42;;;;;;;1999.90;999.90;;;18.90;99.90;;;;;;5080616;28;20047;-65
2022/10/26 11:22:15;;;;;;;1999.90;999.90;;;18.80;99.90;;;;;;5100928;28;20063;-65
2022/10/26 11:24:53;;;;;;;1999.90;999.90;;;18.70;99.90;;;;;;5104902;28;20100;-65
2022/10/26 11:27:37;;;;;;;1999.90;999.90;;;18.70;99.90;;;;;;5075493;28;20035;-65
2022/10/26 11:30:24;;;;;;;1999.90;999.90;;;18.80;99.90;;;;;;5104367;28;20056;-65
2022/10/26 11:32:52;;;;;;;1999.90;999.90;;;18.90;99.90;;;;;;5085383;28;20130;-65
2022/10/26 11:35:30;;;;;;;1999.90;999.90;;;19.00;99.90;;;;;;5091335;28;20043;-65
2022/10/26 11:38:33;;;;;;;1999.90;999.90;;;19.20;99.90;;;;;;5086369;28;20043;-65
2022/10/26 11:41:17;;;;;;;1999.90;999.90;;;19.30;99.90;;;;;;5113236;27;20043;-65
2022/10/26 11:43:46;;;;;;;1999.90;999.90;;;19.50;99.90;;;;;;5109899;28;20088;-66
2022/10/26 11:46:36;;;;;;;1999.90;999.90;;;19.60;99.90;;;;;;5077376;28;20062;-64
2022/10/26 11:49:22;;;;;;;1999.90;999.90;;;19.70;99.90;;;;;;5092142;28;20048;-66
2022/10/26 11:52:06;;;;;;;1999.90;999.90;;;19.80;99.90;;;;;;5090444;28;20501;-66
2022/10/26 11:55:03;;;;;;;1999.90;999.90;;;19.90;99.90;;;;;;5093719;27;20420;-66
2022/10/26 11:57:32;;;;;;;1999.90;999.90;;;19.90;99.90;;;;;;5040170;28;20056;-64
2022/10/26 12:00:02;;;;;;;1999.90;999.90;;;20.00;99.90;;;;;;5046844;28;20049;-64
2022/10/26 12:02:28;;;;;;;1999.90;999.90;;;20.00;99.90;;;;;;5048118;28;20056;-64
2022/10/26 12:05:20;;;;;;;1999.90;999.90;;;19.90;99.90;;;;;;5044932;28;20142;-64
2022/10/26 12:07:55;;;;;;;1999.90;999.90;;;19.80;99.90;;;;;;5077016;28;20747;-64
2022/10/26 12:10:30;;;;;;;1999.90;999.90;;;19.60;99.90;;;;;;5041166;28;20048;-64
2022/10/26 12:13:19;;;;;;;1999.90;999.90;;;19.40;99.90;;;;;;5054854;28;20041;-64
2022/10/26 12:15:51;;;;;;;1999.90;999.90;;;19.20;99.90;;;;;;5045046;28;20853;-64
2022/10/26 12:18:55;;;;;;;1999.90;999.90;;;19.20;99.90;;;;;;5052304;28;20049;-64
2022/10/26 12:21:26;;;;;;;1999.90;999.90;;;19.30;99.90;;;;;;5033781;28;20709;-64
2022/10/26 12:23:56;;;;;;;1999.90;999.90;;;19.50;99.90;;;;;;5047069;28;20044;-64
2022/10/26 12:26:27;;;;;;;1999.90;999.90;;;19.50;99.90;;;;;;5043279;28;20399;-66